Costa Fascinosa — ICPO — position and weather

sailwx.info

Track history (hours):
 
Tides and Currents Weather Stations Pressure Air Temp Water Temp Dewpoint Dewpoint Depression Visibility Wind Speed Wind Dir Waves Ship Positions

Costa Fascinosa

Last reported at 2018-Jan-10 18:38 UTC. Time now 2018-Jan-24 01:54 UTC.
Position S 24°13' W 045°56'.
Warning: this ship's position is 13 days out of date.

Length 291 m; draft 8.3 m.

Type: Passenger vessel. MMSI: 247313500.

Date/timePositionNaut miles runAvg speedWind from/ knotsBaromVisibWave heightAir tempDewpointWater temp
2018-Jan-10 18:38S 24°13' W 045°56'220.7
2018-Jan-10 18:30S 24°11' W 045°55'1020.7
2018-Jan-10 18:00S 24°02' W 045°48'  
2018-Jan-07 06:36S 25°01' W 045°19'220.8
2018-Jan-07 06:30S 25°02' W 045°20'  
2018-Jan-01 22:51S 25°28' W 046°39'1321.5
2018-Jan-01 22:15S 25°17' W 046°32'3521.4
2018-Jan-01 20:37S 24°45' W 046°15'2521.1
2018-Jan-01 19:27S 24°24' W 046°01'1021.2
2018-Jan-01 18:59S 24°15' W 045°56'2920.2
2018-Jan-01 17:32S 23°55' W 045°33'119.5
2018-Jan-01 17:30S 23°54' W 045°33'  
Track history (hours):
 
Tides and Currents Weather Stations Pressure Air Temp Water Temp Dewpoint Dewpoint Depression Visibility Wind Speed Wind Dir Waves Ship Positions

Costa Fascinosa

Last reported at 2018-Jan-10 18:38 UTC. Time now 2018-Jan-24 01:54 UTC.
Position S 24°13' W 045°56'.
Warning: this ship's position is 13 days out of date.

Length 291 m; draft 8.3 m.

Type: Passenger vessel. MMSI: 247313500.

Date/timePositionNaut miles runAvg speedWind from/ knotsBaromVisibWave heightAir tempDewpointWater temp
2018-Jan-10 18:38S 24°13' W 045°56'220.7
2018-Jan-10 18:30S 24°11' W 045°55'1020.7
2018-Jan-10 18:00S 24°02' W 045°48'  
2018-Jan-07 06:36S 25°01' W 045°19'220.8
2018-Jan-07 06:30S 25°02' W 045°20'  
2018-Jan-01 22:51S 25°28' W 046°39'1321.5
2018-Jan-01 22:15S 25°17' W 046°32'3521.4
2018-Jan-01 20:37S 24°45' W 046°15'2521.1
2018-Jan-01 19:27S 24°24' W 046°01'1021.2
2018-Jan-01 18:59S 24°15' W 045°56'2920.2
2018-Jan-01 17:32S 23°55' W 045°33'119.5
2018-Jan-01 17:30S 23°54' W 045°33'  

Dump ship's entire track history